Thomas Junction, Idaho
Current Conditions -  °F | °C
As of 3:53 PM on Thursday 23 Oct 2014 (Local Time) from KIDA Reporting Station
Scattered Clouds Scattered Clouds  
Wind Chill: 63°   Ceiling: Unl
Heat Index: 63°   Visibility: 10mi
Dew Point: 31°   Wind: 17mph
Humidity: 30%   Direction: 220°SW
Pressure: 30.08"   Gusts: 24mph
Location:  43.2718°N, 112.405°W
Report Text: KIDA 232153Z 22015G21KT 10SM SCT110 17/M01 A3008 RMK AO2 SLP170 T01721006
Loading
Personal Weather Stations






























Interactive Weather Map
Tropical Storm Tracking
New forecast layout! Learn more

10-Day Weather Forecast

Advertisements
Track Severe Weather on mobile